sensor_id;sensor_type;location;lat;lon;timestamp;pressure;altitude;pressure_sealevel;temperature;humidity
22580;BME280;11456;47.030;15.396;2022-11-06T00:01:26;97714.78;;;7.67;71.71
22580;BME280;11456;47.030;15.396;2022-11-06T00:03:53;97705.03;;;7.66;71.21
22580;BME280;11456;47.030;15.396;2022-11-06T00:06:20;97703.75;;;7.60;71.29
22580;BME280;11456;47.030;15.396;2022-11-06T00:09:06;97707.97;;;7.63;71.71
22580;BME280;11456;47.030;15.396;2022-11-06T00:11:33;97717.06;;;7.51;72.14
22580;BME280;11456;47.030;15.396;2022-11-06T00:14:00;97707.69;;;7.36;73.66
22580;BME280;11456;47.030;15.396;2022-11-06T00:16:27;97709.69;;;7.43;72.57
22580;BME280;11456;47.030;15.396;2022-11-06T00:18:54;97715.38;;;7.50;72.79
22580;BME280;11456;47.030;15.396;2022-11-06T00:21:25;97716.19;;;7.41;72.70
22580;BME280;11456;47.030;15.396;2022-11-06T00:23:52;97710.41;;;7.45;72.25
22580;BME280;11456;47.030;15.396;2022-11-06T00:26:19;97711.25;;;7.46;71.97
22580;BME280;11456;47.030;15.396;2022-11-06T00:28:47;97707.00;;;7.43;72.39
22580;BME280;11456;47.030;15.396;2022-11-06T00:31:14;97701.72;;;7.32;73.02
22580;BME280;11456;47.030;15.396;2022-11-06T00:33:41;97712.56;;;7.31;73.15
22580;BME280;11456;47.030;15.396;2022-11-06T00:36:09;97704.53;;;7.31;73.77
22580;BME280;11456;47.030;15.396;2022-11-06T00:38:37;97702.66;;;7.21;73.57
22580;BME280;11456;47.030;15.396;2022-11-06T00:41:04;97706.31;;;7.20;74.18
22580;BME280;11456;47.030;15.396;2022-11-06T00:43:31;97705.31;;;7.21;73.72
22580;BME280;11456;47.030;15.396;2022-11-06T00:45:59;97707.41;;;7.18;73.89
22580;BME280;11456;47.030;15.396;2022-11-06T00:48:26;97692.19;;;7.18;74.12
22580;BME280;11456;47.030;15.396;2022-11-06T00:50:53;97700.47;;;7.36;73.52
22580;BME280;11456;47.030;15.396;2022-11-06T00:53:19;97710.69;;;7.42;72.63
22580;BME280;11456;47.030;15.396;2022-11-06T00:55:46;97710.38;;;7.36;72.44
22580;BME280;11456;47.030;15.396;2022-11-06T00:58:12;97710.81;;;7.41;71.64
22580;BME280;11456;47.030;15.396;2022-11-06T01:00:39;97711.50;;;7.43;72.20
22580;BME280;11456;47.030;15.396;2022-11-06T01:03:06;97698.81;;;7.35;71.88
22580;BME280;11456;47.030;15.396;2022-11-06T01:05:32;97709.34;;;7.37;71.97
22580;BME280;11456;47.030;15.396;2022-11-06T01:07:59;97706.16;;;7.43;71.29
22580;BME280;11456;47.030;15.396;2022-11-06T01:10:25;97708.34;;;7.49;70.18
22580;BME280;11456;47.030;15.396;2022-11-06T01:12:52;97708.50;;;7.57;69.93
22580;BME280;11456;47.030;15.396;2022-11-06T01:15:18;97706.53;;;7.59;70.05
22580;BME280;11456;47.030;15.396;2022-11-06T01:17:45;97713.31;;;7.63;69.70
22580;BME280;11456;47.030;15.396;2022-11-06T01:20:11;97719.66;;;7.62;70.02
22580;BME280;11456;47.030;15.396;2022-11-06T01:22:38;97716.28;;;7.60;69.62
22580;BME280;11456;47.030;15.396;2022-11-06T01:25:04;97709.97;;;7.61;69.54
22580;BME280;11456;47.030;15.396;2022-11-06T01:27:31;97712.25;;;7.75;69.01
22580;BME280;11456;47.030;15.396;2022-11-06T01:29:58;97710.28;;;7.68;69.41
22580;BME280;11456;47.030;15.396;2022-11-06T01:32:24;97705.47;;;7.71;68.89
22580;BME280;11456;47.030;15.396;2022-11-06T01:34:51;97712.88;;;7.79;68.26
22580;BME280;11456;47.030;15.396;2022-11-06T01:37:17;97709.78;;;7.83;67.85
22580;BME280;11456;47.030;15.396;2022-11-06T01:39:44;97710.69;;;7.93;67.01
22580;BME280;11456;47.030;15.396;2022-11-06T01:42:11;97709.06;;;8.12;66.52
22580;BME280;11456;47.030;15.396;2022-11-06T01:47:18;97713.31;;;8.24;65.78
22580;BME280;11456;47.030;15.396;2022-11-06T01:49:45;97717.72;;;8.25;65.50
22580;BME280;11456;47.030;15.396;2022-11-06T01:52:12;97714.53;;;8.31;65.34
22580;BME280;11456;47.030;15.396;2022-11-06T01:54:40;97718.34;;;8.38;64.90
22580;BME280;11456;47.030;15.396;2022-11-06T01:57:08;97720.75;;;8.41;64.86
22580;BME280;11456;47.030;15.396;2022-11-06T01:59:36;97721.88;;;8.38;64.75
22580;BME280;11456;47.030;15.396;2022-11-06T02:02:05;97721.91;;;8.48;64.04
22580;BME280;11456;47.030;15.396;2022-11-06T02:04:36;97715.69;;;8.48;64.16
22580;BME280;11456;47.030;15.396;2022-11-06T02:07:03;97716.28;;;8.51;64.02
22580;BME280;11456;47.030;15.396;2022-11-06T02:09:30;97720.91;;;8.49;64.09
22580;BME280;11456;47.030;15.396;2022-11-06T02:12:02;97716.28;;;8.51;63.96
22580;BME280;11456;47.030;15.396;2022-11-06T02:14:36;97712.88;;;8.59;63.82
22580;BME280;11456;47.030;15.396;2022-11-06T02:19:45;97715.97;;;8.54;63.67
22580;BME280;11456;47.030;15.396;2022-11-06T02:25:12;97713.47;;;8.62;63.50
22580;BME280;11456;47.030;15.396;2022-11-06T02:27:43;97714.16;;;8.83;62.37
22580;BME280;11456;47.030;15.396;2022-11-06T02:30:12;97712.34;;;8.74;62.91
22580;BME280;11456;47.030;15.396;2022-11-06T02:35:19;97728.16;;;8.77;62.35
22580;BME280;11456;47.030;15.396;2022-11-06T02:37:49;97736.94;;;8.79;62.14
22580;BME280;11456;47.030;15.396;2022-11-06T02:40:19;97735.13;;;8.90;62.09
22580;BME280;11456;47.030;15.396;2022-11-06T02:42:47;97728.88;;;8.79;62.24
22580;BME280;11456;47.030;15.396;2022-11-06T02:45:16;97739.63;;;8.99;62.03
22580;BME280;11456;47.030;15.396;2022-11-06T02:47:45;97734.66;;;8.84;62.01
22580;BME280;11456;47.030;15.396;2022-11-06T02:50:18;97732.88;;;8.95;61.83
22580;BME280;11456;47.030;15.396;2022-11-06T02:55:28;97733.56;;;8.87;61.21
22580;BME280;11456;47.030;15.396;2022-11-06T02:57:58;97731.97;;;8.84;61.83
22580;BME280;11456;47.030;15.396;2022-11-06T03:00:26;97730.75;;;8.89;61.69
22580;BME280;11456;47.030;15.396;2022-11-06T03:03:00;97734.84;;;8.83;61.35
22580;BME280;11456;47.030;15.396;2022-11-06T03:05:30;97733.81;;;8.74;61.46
22580;BME280;11456;47.030;15.396;2022-11-06T03:10:42;97739.44;;;8.71;61.57
22580;BME280;11456;47.030;15.396;2022-11-06T03:13:15;97741.72;;;8.66;61.95
22580;BME280;11456;47.030;15.396;2022-11-06T03:15:49;97737.78;;;8.70;62.05
22580;BME280;11456;47.030;15.396;2022-11-06T03:23:15;97740.47;;;8.70;62.07
22580;BME280;11456;47.030;15.396;2022-11-06T03:25:45;97748.50;;;8.61;62.09
22580;BME280;11456;47.030;15.396;2022-11-06T03:28:27;97745.41;;;8.84;61.71
22580;BME280;11456;47.030;15.396;2022-11-06T03:30:57;97749.63;;;8.68;62.15
22580;BME280;11456;47.030;15.396;2022-11-06T03:33:35;97753.91;;;8.80;61.87
22580;BME280;11456;47.030;15.396;2022-11-06T03:36:08;97751.63;;;8.75;61.62
22580;BME280;11456;47.030;15.396;2022-11-06T03:38:40;97770.56;;;8.83;61.70
22580;BME280;11456;47.030;15.396;2022-11-06T03:43:53;97765.19;;;8.74;61.67
22580;BME280;11456;47.030;15.396;2022-11-06T03:46:23;97770.84;;;8.80;61.03
22580;BME280;11456;47.030;15.396;2022-11-06T03:48:52;97763.22;;;8.85;61.38
22580;BME280;11456;47.030;15.396;2022-11-06T03:51:21;97765.19;;;8.83;61.41
22580;BME280;11456;47.030;15.396;2022-11-06T03:53:51;97783.88;;;8.85;61.36
22580;BME280;11456;47.030;15.396;2022-11-06T03:59:11;97775.50;;;8.78;61.69
22580;BME280;11456;47.030;15.396;2022-11-06T04:01:42;97778.75;;;8.72;61.53
22580;BME280;11456;47.030;15.396;2022-11-06T04:04:12;97772.22;;;8.65;61.91
22580;BME280;11456;47.030;15.396;2022-11-06T04:06:51;97768.94;;;9.21;60.78
22580;BME280;11456;47.030;15.396;2022-11-06T04:09:19;97780.69;;;8.51;61.28
22580;BME280;11456;47.030;15.396;2022-11-06T04:12:05;97786.09;;;7.58;64.18
22580;BME280;11456;47.030;15.396;2022-11-06T04:14:53;97792.00;;;7.73;64.97
22580;BME280;11456;47.030;15.396;2022-11-06T04:17:22;97787.19;;;7.56;64.17
22580;BME280;11456;47.030;15.396;2022-11-06T04:19:50;97797.09;;;5.93;71.39
22580;BME280;11456;47.030;15.396;2022-11-06T04:28:25;97795.88;;;5.16;77.86
22580;BME280;11456;47.030;15.396;2022-11-06T04:33:27;97804.28;;;4.51;82.62
22580;BME280;11456;47.030;15.396;2022-11-06T04:38:26;97810.19;;;5.15;79.93
22580;BME280;11456;47.030;15.396;2022-11-06T04:43:29;97807.09;;;4.97;79.07
22580;BME280;11456;47.030;15.396;2022-11-06T04:46:01;97819.63;;;4.60;82.43
22580;BME280;11456;47.030;15.396;2022-11-06T04:48:29;97818.84;;;4.34;84.13
22580;BME280;11456;47.030;15.396;2022-11-06T04:51:00;97819.69;;;4.35;85.10
22580;BME280;11456;47.030;15.396;2022-11-06T04:53:29;97813.56;;;4.46;83.27
22580;BME280;11456;47.030;15.396;2022-11-06T04:55:59;97813.56;;;4.09;85.82
22580;BME280;11456;47.030;15.396;2022-11-06T04:58:26;97815.44;;;4.20;86.56
22580;BME280;11456;47.030;15.396;2022-11-06T05:00:52;97820.81;;;3.94;87.76
22580;BME280;11456;47.030;15.396;2022-11-06T05:03:19;97814.00;;;3.90;88.54
22580;BME280;11456;47.030;15.396;2022-11-06T05:05:46;97817.06;;;4.10;88.25
22580;BME280;11456;47.030;15.396;2022-11-06T05:08:13;97818.44;;;4.28;86.68
22580;BME280;11456;47.030;15.396;2022-11-06T05:10:41;97817.16;;;4.21;87.25
22580;BME280;11456;47.030;15.396;2022-11-06T05:13:08;97825.69;;;4.00;87.80
22580;BME280;11456;47.030;15.396;2022-11-06T05:15:35;97821.28;;;4.25;87.36
22580;BME280;11456;47.030;15.396;2022-11-06T05:18:01;97821.41;;;4.11;87.09
22580;BME280;11456;47.030;15.396;2022-11-06T05:20:28;97815.97;;;4.12;87.30
22580;BME280;11456;47.030;15.396;2022-11-06T05:22:55;97826.31;;;3.91;88.03
22580;BME280;11456;47.030;15.396;2022-11-06T05:25:27;97819.28;;;4.16;88.23
22580;BME280;11456;47.030;15.396;2022-11-06T05:27:54;97823.03;;;4.00;88.19
22580;BME280;11456;47.030;15.396;2022-11-06T05:30:21;97819.94;;;3.94;88.16
22580;BME280;11456;47.030;15.396;2022-11-06T05:32:48;97824.09;;;3.85;88.60
22580;BME280;11456;47.030;15.396;2022-11-06T05:35:15;97824.31;;;3.82;88.92
22580;BME280;11456;47.030;15.396;2022-11-06T05:37:42;97826.31;;;3.91;88.57
22580;BME280;11456;47.030;15.396;2022-11-06T05:40:09;97817.91;;;3.97;88.05
22580;BME280;11456;47.030;15.396;2022-11-06T05:42:39;97823.22;;;3.97;87.93
22580;BME280;11456;47.030;15.396;2022-11-06T05:45:06;97827.84;;;3.95;87.71
22580;BME280;11456;47.030;15.396;2022-11-06T05:47:33;97818.47;;;3.77;88.50
22580;BME280;11456;47.030;15.396;2022-11-06T05:49:59;97822.50;;;3.70;89.23
22580;BME280;11456;47.030;15.396;2022-11-06T05:52:26;97829.94;;;3.65;89.63
22580;BME280;11456;47.030;15.396;2022-11-06T05:54:52;97825.47;;;3.78;89.41
22580;BME280;11456;47.030;15.396;2022-11-06T05:57:19;97829.56;;;3.84;88.87
22580;BME280;11456;47.030;15.396;2022-11-06T05:59:45;97827.84;;;3.83;89.03
22580;BME280;11456;47.030;15.396;2022-11-06T06:02:12;97835.69;;;3.84;89.11
22580;BME280;11456;47.030;15.396;2022-11-06T06:04:39;97837.31;;;3.74;89.21
22580;BME280;11456;47.030;15.396;2022-11-06T06:07:05;97842.00;;;3.83;88.88
22580;BME280;11456;47.030;15.396;2022-11-06T06:09:32;97845.31;;;3.87;89.23
22580;BME280;11456;47.030;15.396;2022-11-06T06:11:58;97842.22;;;3.80;89.02
22580;BME280;11456;47.030;15.396;2022-11-06T06:14:25;97846.16;;;3.62;89.88
22580;BME280;11456;47.030;15.396;2022-11-06T06:16:51;97850.19;;;3.80;89.78
22580;BME280;11456;47.030;15.396;2022-11-06T06:19:18;97846.50;;;4.57;90.87
22580;BME280;11456;47.030;15.396;2022-11-06T06:21:44;97852.91;;;5.85;84.37
22580;BME280;11456;47.030;15.396;2022-11-06T06:24:11;97866.13;;;6.21;80.32
22580;BME280;11456;47.030;15.396;2022-11-06T06:26:38;97865.16;;;6.22;79.42
22580;BME280;11456;47.030;15.396;2022-11-06T06:29:04;97870.88;;;6.18;80.44
22580;BME280;11456;47.030;15.396;2022-11-06T06:31:31;97868.75;;;5.88;80.68
22580;BME280;11456;47.030;15.396;2022-11-06T06:33:57;97871.09;;;5.69;82.42
22580;BME280;11456;47.030;15.396;2022-11-06T06:36:24;97861.84;;;5.61;82.01
22580;BME280;11456;47.030;15.396;2022-11-06T06:38:50;97865.03;;;5.67;81.48
22580;BME280;11456;47.030;15.396;2022-11-06T06:41:17;97870.38;;;6.01;82.34
22580;BME280;11456;47.030;15.396;2022-11-06T06:43:45;97865.44;;;6.53;80.34
22580;BME280;11456;47.030;15.396;2022-11-06T06:46:12;97878.66;;;7.31;77.58
22580;BME280;11456;47.030;15.396;2022-11-06T06:48:39;97879.69;;;7.50;77.22
22580;BME280;11456;47.030;15.396;2022-11-06T06:51:05;97874.75;;;7.67;74.68
22580;BME280;11456;47.030;15.396;2022-11-06T06:53:33;97873.84;;;7.77;74.61
22580;BME280;11456;47.030;15.396;2022-11-06T06:56:00;97877.06;;;8.13;74.56
22580;BME280;11456;47.030;15.396;2022-11-06T06:58:28;97883.56;;;8.31;71.75
22580;BME280;11456;47.030;15.396;2022-11-06T07:00:57;97878.22;;;8.20;73.26
22580;BME280;11456;47.030;15.396;2022-11-06T07:03:24;97886.47;;;8.28;71.99
22580;BME280;11456;47.030;15.396;2022-11-06T07:05:51;97881.00;;;8.60;70.37
22580;BME280;11456;47.030;15.396;2022-11-06T07:08:17;97872.84;;;8.20;72.02
22580;BME280;11456;47.030;15.396;2022-11-06T07:10:44;97884.31;;;8.42;70.48
22580;BME280;11456;47.030;15.396;2022-11-06T07:13:10;97888.88;;;8.52;70.31
22580;BME280;11456;47.030;15.396;2022-11-06T07:15:37;97885.97;;;8.95;68.96
22580;BME280;11456;47.030;15.396;2022-11-06T07:18:04;97889.25;;;9.17;67.89
22580;BME280;11456;47.030;15.396;2022-11-06T07:20:31;97888.34;;;9.76;65.44
22580;BME280;11456;47.030;15.396;2022-11-06T07:22:59;97885.75;;;9.36;67.86
22580;BME280;11456;47.030;15.396;2022-11-06T07:25:30;97878.16;;;9.51;66.52
22580;BME280;11456;47.030;15.396;2022-11-06T07:28:03;97880.38;;;10.13;65.33
22580;BME280;11456;47.030;15.396;2022-11-06T07:30:31;97889.16;;;10.15;63.19
22580;BME280;11456;47.030;15.396;2022-11-06T07:33:04;97880.09;;;10.26;63.82
22580;BME280;11456;47.030;15.396;2022-11-06T07:35:31;97882.38;;;10.11;64.61
22580;BME280;11456;47.030;15.396;2022-11-06T07:38:01;97879.19;;;10.91;59.17
22580;BME280;11456;47.030;15.396;2022-11-06T07:40:27;97872.75;;;10.28;61.59
22580;BME280;11456;47.030;15.396;2022-11-06T07:42:54;97883.94;;;10.79;60.25
22580;BME280;11456;47.030;15.396;2022-11-06T07:45:20;97885.03;;;10.40;61.20
22580;BME280;11456;47.030;15.396;2022-11-06T07:47:47;97881.00;;;11.90;59.54
22580;BME280;11456;47.030;15.396;2022-11-06T07:50:13;97877.53;;;11.53;56.10
22580;BME280;11456;47.030;15.396;2022-11-06T07:52:40;97886.72;;;11.42;57.00
22580;BME280;11456;47.030;15.396;2022-11-06T07:55:07;97883.00;;;10.98;57.89
22580;BME280;11456;47.030;15.396;2022-11-06T07:57:34;97879.69;;;11.04;58.16
22580;BME280;11456;47.030;15.396;2022-11-06T08:00:01;97871.38;;;11.43;56.72
22580;BME280;11456;47.030;15.396;2022-11-06T08:02:37;97881.56;;;11.49;58.58
22580;BME280;11456;47.030;15.396;2022-11-06T08:05:04;97884.22;;;11.76;57.92
22580;BME280;11456;47.030;15.396;2022-11-06T08:07:31;97878.75;;;11.41;57.93
22580;BME280;11456;47.030;15.396;2022-11-06T08:09:57;97886.97;;;11.21;57.62
22580;BME280;11456;47.030;15.396;2022-11-06T08:12:24;97870.53;;;12.13;55.02
22580;BME280;11456;47.030;15.396;2022-11-06T08:14:50;97876.94;;;11.14;58.15
22580;BME280;11456;47.030;15.396;2022-11-06T08:17:16;97877.38;;;11.37;58.08
22580;BME280;11456;47.030;15.396;2022-11-06T08:19:43;97876.47;;;12.60;56.24
22580;BME280;11456;47.030;15.396;2022-11-06T08:22:09;97868.56;;;12.41;54.53
22580;BME280;11456;47.030;15.396;2022-11-06T08:24:36;97863.72;;;12.27;54.12
22580;BME280;11456;47.030;15.396;2022-11-06T08:27:02;97871.38;;;13.25;53.75
22580;BME280;11456;47.030;15.396;2022-11-06T08:29:29;97863.75;;;14.19;50.67
22580;BME280;11456;47.030;15.396;2022-11-06T08:31:56;97864.09;;;14.16;50.58
22580;BME280;11456;47.030;15.396;2022-11-06T08:34:22;97862.97;;;13.44;52.47
22580;BME280;11456;47.030;15.396;2022-11-06T08:36:49;97864.16;;;13.42;55.52
22580;BME280;11456;47.030;15.396;2022-11-06T08:39:17;97865.16;;;12.99;53.22
22580;BME280;11456;47.030;15.396;2022-11-06T08:41:43;97857.16;;;13.15;52.38
22580;BME280;11456;47.030;15.396;2022-11-06T08:44:10;97859.69;;;14.07;52.94
22580;BME280;11456;47.030;15.396;2022-11-06T08:46:37;97856.59;;;13.53;52.79
22580;BME280;11456;47.030;15.396;2022-11-06T08:49:03;97852.22;;;12.76;53.12
22580;BME280;11456;47.030;15.396;2022-11-06T08:51:30;97851.25;;;12.85;53.50
22580;BME280;11456;47.030;15.396;2022-11-06T08:53:56;97849.06;;;13.23;52.53
22580;BME280;11456;47.030;15.396;2022-11-06T08:56:24;97844.78;;;13.62;52.85
22580;BME280;11456;47.030;15.396;2022-11-06T08:58:50;97843.75;;;13.05;53.74
22580;BME280;11456;47.030;15.396;2022-11-06T09:01:21;97858.22;;;13.38;52.93
22580;BME280;11456;47.030;15.396;2022-11-06T09:03:49;97850.69;;;13.74;50.96
22580;BME280;11456;47.030;15.396;2022-11-06T09:06:16;97851.34;;;13.10;54.20
22580;BME280;11456;47.030;15.396;2022-11-06T09:08:42;97843.75;;;13.72;51.60
22580;BME280;11456;47.030;15.396;2022-11-06T09:11:09;97843.94;;;14.98;48.81
22580;BME280;11456;47.030;15.396;2022-11-06T09:13:37;97842.75;;;14.29;50.90
22580;BME280;11456;47.030;15.396;2022-11-06T09:16:03;97839.31;;;14.76;50.72
22580;BME280;11456;47.030;15.396;2022-11-06T09:18:36;97834.78;;;14.99;49.15
22580;BME280;11456;47.030;15.396;2022-11-06T09:21:03;97830.75;;;16.11;47.27
22580;BME280;11456;47.030;15.396;2022-11-06T09:23:29;97825.66;;;16.30;47.33
22580;BME280;11456;47.030;15.396;2022-11-06T09:25:56;97829.72;;;16.12;46.11
22580;BME280;11456;47.030;15.396;2022-11-06T09:28:23;97835.72;;;15.84;46.51
22580;BME280;11456;47.030;15.396;2022-11-06T09:30:50;97830.25;;;14.92;46.94
22580;BME280;11456;47.030;15.396;2022-11-06T09:33:16;97828.00;;;15.73;47.02
22580;BME280;11456;47.030;15.396;2022-11-06T09:35:43;97823.63;;;15.64;48.48
22580;BME280;11456;47.030;15.396;2022-11-06T09:38:10;97825.66;;;16.08;47.03
22580;BME280;11456;47.030;15.396;2022-11-06T09:40:42;97825.53;;;16.91;45.97
22580;BME280;11456;47.030;15.396;2022-11-06T09:46:19;97818.06;;;16.63;45.48
22580;BME280;11456;47.030;15.396;2022-11-06T09:48:48;97822.09;;;15.31;48.29
22580;BME280;11456;47.030;15.396;2022-11-06T09:51:19;97815.72;;;16.52;47.13
22580;BME280;11456;47.030;15.396;2022-11-06T09:53:52;97819.72;;;16.12;47.21
22580;BME280;11456;47.030;15.396;2022-11-06T09:56:22;97816.03;;;16.57;46.83
22580;BME280;11456;47.030;15.396;2022-11-06T09:58:51;97810.72;;;15.89;48.54
22580;BME280;11456;47.030;15.396;2022-11-06T10:01:27;97799.09;;;16.84;47.33
22580;BME280;11456;47.030;15.396;2022-11-06T10:03:55;97804.16;;;17.02;47.05
22580;BME280;11456;47.030;15.396;2022-11-06T10:06:23;97807.66;;;16.81;46.95
22580;BME280;11456;47.030;15.396;2022-11-06T10:08:50;97797.78;;;16.80;47.71
22580;BME280;11456;47.030;15.396;2022-11-06T10:14:06;97787.69;;;17.25;46.47
22580;BME280;11456;47.030;15.396;2022-11-06T10:16:46;97793.19;;;16.96;47.00
22580;BME280;11456;47.030;15.396;2022-11-06T10:21:51;97787.38;;;16.69;47.71
22580;BME280;11456;47.030;15.396;2022-11-06T10:26:55;97777.97;;;16.57;47.41
22580;BME280;11456;47.030;15.396;2022-11-06T10:31:55;97779.28;;;16.91;47.00
22580;BME280;11456;47.030;15.396;2022-11-06T10:34:35;97779.88;;;16.71;46.92
22580;BME280;11456;47.030;15.396;2022-11-06T10:37:14;97772.59;;;17.58;45.53
22580;BME280;11456;47.030;15.396;2022-11-06T10:39:43;97774.97;;;17.47;45.92
22580;BME280;11456;47.030;15.396;2022-11-06T10:42:16;97763.72;;;16.84;45.61
22580;BME280;11456;47.030;15.396;2022-11-06T10:44:45;97772.00;;;16.76;45.59
22580;BME280;11456;47.030;15.396;2022-11-06T10:47:20;97762.06;;;17.55;43.83
22580;BME280;11456;47.030;15.396;2022-11-06T10:49:48;97755.16;;;17.74;44.24
22580;BME280;11456;47.030;15.396;2022-11-06T10:55:09;97744.19;;;17.89;43.30
22580;BME280;11456;47.030;15.396;2022-11-06T11:00:09;97738.72;;;18.10;41.11
22580;BME280;11456;47.030;15.396;2022-11-06T11:02:38;97724.78;;;17.56;41.99
22580;BME280;11456;47.030;15.396;2022-11-06T11:05:12;97726.91;;;18.59;40.77
22580;BME280;11456;47.030;15.396;2022-11-06T11:07:39;97724.91;;;18.18;41.34
22580;BME280;11456;47.030;15.396;2022-11-06T11:12:55;97708.34;;;18.82;40.08
22580;BME280;11456;47.030;15.396;2022-11-06T11:15:23;97708.75;;;18.44;39.48
22580;BME280;11456;47.030;15.396;2022-11-06T11:18:07;97709.34;;;19.29;37.63
22580;BME280;11456;47.030;15.396;2022-11-06T11:20:35;97706.72;;;19.48;38.35
22580;BME280;11456;47.030;15.396;2022-11-06T11:25:32;97710.84;;;17.87;40.29
22580;BME280;11456;47.030;15.396;2022-11-06T11:27:59;97709.19;;;18.48;38.64
22580;BME280;11456;47.030;15.396;2022-11-06T11:30:38;97717.84;;;17.75;39.79
22580;BME280;11456;47.030;15.396;2022-11-06T11:33:10;97718.81;;;17.88;39.21
22580;BME280;11456;47.030;15.396;2022-11-06T11:35:37;97712.53;;;17.88;39.27
22580;BME280;11456;47.030;15.396;2022-11-06T11:38:12;97720.41;;;17.76;38.67
22580;BME280;11456;47.030;15.396;2022-11-06T11:40:40;97708.53;;;17.84;38.48
22580;BME280;11456;47.030;15.396;2022-11-06T11:43:26;97706.66;;;17.63;38.67
22580;BME280;11456;47.030;15.396;2022-11-06T11:51:20;97700.19;;;18.48;37.29
22580;BME280;11456;47.030;15.396;2022-11-06T11:53:48;97694.16;;;19.00;36.33
22580;BME280;11456;47.030;15.396;2022-11-06T11:56:17;97700.25;;;18.26;37.36
22580;BME280;11456;47.030;15.396;2022-11-06T11:59:04;97701.75;;;17.80;38.29
22580;BME280;11456;47.030;15.396;2022-11-06T12:01:35;97704.88;;;18.32;37.30
22580;BME280;11456;47.030;15.396;2022-11-06T12:04:26;97698.97;;;17.67;37.78
22580;BME280;11456;47.030;15.396;2022-11-06T12:06:52;97695.78;;;17.48;38.27
22580;BME280;11456;47.030;15.396;2022-11-06T12:09:21;97697.00;;;17.03;38.66
22580;BME280;11456;47.030;15.396;2022-11-06T12:11:48;97694.56;;;17.08;38.34
22580;BME280;11456;47.030;15.396;2022-11-06T12:14:27;97687.91;;;17.53;37.60
22580;BME280;11456;47.030;15.396;2022-11-06T12:17:14;97695.00;;;17.54;38.25
22580;BME280;11456;47.030;15.396;2022-11-06T12:19:44;97693.78;;;16.78;39.11
22580;BME280;11456;47.030;15.396;2022-11-06T12:22:17;97688.66;;;16.69;39.67
22580;BME280;11456;47.030;15.396;2022-11-06T12:24:50;97687.63;;;16.26;40.78
22580;BME280;11456;47.030;15.396;2022-11-06T12:27:28;97673.91;;;16.34;40.14
22580;BME280;11456;47.030;15.396;2022-11-06T12:30:10;97668.84;;;16.75;39.84
22580;BME280;11456;47.030;15.396;2022-11-06T12:32:51;97668.13;;;16.37;42.22
22580;BME280;11456;47.030;15.396;2022-11-06T12:35:22;97670.56;;;16.32;42.68
22580;BME280;11456;47.030;15.396;2022-11-06T12:38:09;97666.38;;;17.37;40.90
22580;BME280;11456;47.030;15.396;2022-11-06T12:40:39;97662.97;;;16.93;41.88
22580;BME280;11456;47.030;15.396;2022-11-06T12:45:53;97666.03;;;16.54;41.95
22580;BME280;11456;47.030;15.396;2022-11-06T12:51:14;97655.00;;;16.26;42.80
22580;BME280;11456;47.030;15.396;2022-11-06T12:56:16;97649.66;;;16.18;43.23
22580;BME280;11456;47.030;15.396;2022-11-06T13:01:22;97649.53;;;16.55;42.23
22580;BME280;11456;47.030;15.396;2022-11-06T13:03:58;97646.75;;;16.63;42.01
22580;BME280;11456;47.030;15.396;2022-11-06T13:06:33;97642.41;;;16.54;41.48
22580;BME280;11456;47.030;15.396;2022-11-06T13:09:07;97640.75;;;16.24;41.45
22580;BME280;11456;47.030;15.396;2022-11-06T13:11:41;97651.06;;;16.28;41.86
22580;BME280;11456;47.030;15.396;2022-11-06T13:14:28;97641.97;;;16.87;39.73
22580;BME280;11456;47.030;15.396;2022-11-06T13:17:02;97654.31;;;17.04;39.94
22580;BME280;11456;47.030;15.396;2022-11-06T13:19:36;97655.94;;;16.62;40.86
22580;BME280;11456;47.030;15.396;2022-11-06T13:29:44;97640.97;;;17.09;39.04
22580;BME280;11456;47.030;15.396;2022-11-06T13:32:13;97650.41;;;16.92;39.52
22580;BME280;11456;47.030;15.396;2022-11-06T13:34:42;97652.44;;;17.26;38.67
22580;BME280;11456;47.030;15.396;2022-11-06T13:37:22;97656.50;;;16.94;38.34
22580;BME280;11456;47.030;15.396;2022-11-06T13:39:51;97657.97;;;16.60;39.17
22580;BME280;11456;47.030;15.396;2022-11-06T13:42:32;97660.41;;;16.55;39.06
22580;BME280;11456;47.030;15.396;2022-11-06T13:45:02;97675.88;;;15.96;39.75
22580;BME280;11456;47.030;15.396;2022-11-06T13:47:34;97678.88;;;15.63;40.68
22580;BME280;11456;47.030;15.396;2022-11-06T13:50:10;97680.78;;;15.40;40.09
22580;BME280;11456;47.030;15.396;2022-11-06T13:52:46;97672.31;;;15.12;39.35
22580;BME280;11456;47.030;15.396;2022-11-06T13:55:29;97691.81;;;14.85;40.85
22580;BME280;11456;47.030;15.396;2022-11-06T14:05:57;97674.25;;;15.27;40.76
22580;BME280;11456;47.030;15.396;2022-11-06T14:13:32;97656.97;;;14.35;43.09
22580;BME280;11456;47.030;15.396;2022-11-06T14:16:03;97661.25;;;14.37;42.83
22580;BME280;11456;47.030;15.396;2022-11-06T14:18:30;97660.59;;;14.27;42.96
22580;BME280;11456;47.030;15.396;2022-11-06T14:23:46;97648.94;;;14.19;41.89
22580;BME280;11456;47.030;15.396;2022-11-06T14:26:13;97651.13;;;14.15;42.51
22580;BME280;11456;47.030;15.396;2022-11-06T14:28:59;97639.19;;;14.40;41.70
22580;BME280;11456;47.030;15.396;2022-11-06T14:32:04;97642.66;;;14.18;41.73
22580;BME280;11456;47.030;15.396;2022-11-06T14:34:38;97645.53;;;14.87;40.56
22580;BME280;11456;47.030;15.396;2022-11-06T14:42:39;97627.00;;;14.75;40.46
22580;BME280;11456;47.030;15.396;2022-11-06T14:45:37;97618.16;;;14.51;40.18
22580;BME280;11456;47.030;15.396;2022-11-06T14:47:56;97621.19;;;14.09;41.13
22580;BME280;11456;47.030;15.396;2022-11-06T14:50:34;97618.72;;;13.83;41.35
22580;BME280;11456;47.030;15.396;2022-11-06T14:53:04;97621.19;;;13.45;42.28
22580;BME280;11456;47.030;15.396;2022-11-06T14:55:42;97625.59;;;13.22;42.92
22580;BME280;11456;47.030;15.396;2022-11-06T15:00:45;97630.13;;;12.89;44.19